createdAt,value
2023-04-14T00:02:24.667Z,2.08
2023-04-14T00:04:53.493Z,2.67
2023-04-14T00:07:20.746Z,1.98
2023-04-14T00:09:47.855Z,2.22
2023-04-14T00:12:14.897Z,1.85
2023-04-14T00:14:43.134Z,2.28
2023-04-14T00:17:10.953Z,2.15
2023-04-14T00:19:38.551Z,1.95
2023-04-14T00:22:05.630Z,1.88
2023-04-14T00:24:32.879Z,1.73
2023-04-14T00:27:00.048Z,1.60
2023-04-14T00:29:27.175Z,2.10
2023-04-14T00:31:54.298Z,1.95
2023-04-14T00:34:21.365Z,1.90
2023-04-14T00:36:48.430Z,2.00
2023-04-14T00:39:15.570Z,2.13
2023-04-14T00:41:43.294Z,1.75
2023-04-14T00:44:10.474Z,2.25
2023-04-14T00:46:37.727Z,1.73
2023-04-14T00:49:05.182Z,2.15
2023-04-14T00:51:33.761Z,1.98
2023-04-14T00:54:02.900Z,1.60
2023-04-14T00:56:31.261Z,2.30
2023-04-14T00:59:01.368Z,1.92
2023-04-14T01:01:29.242Z,2.03
2023-04-14T01:03:57.031Z,2.00
2023-04-14T01:06:24.332Z,2.45
2023-04-14T01:08:51.694Z,2.67
2023-04-14T01:11:21.838Z,1.98
2023-04-14T01:13:48.949Z,2.45
2023-04-14T01:16:22.795Z,2.70
2023-04-14T01:21:19.890Z,2.47
2023-04-14T01:24:12.964Z,1.95
2023-04-14T01:26:40.496Z,2.25
2023-04-14T01:29:13.982Z,2.40
2023-04-14T01:32:07.404Z,2.53
2023-04-14T01:34:38.342Z,2.72
2023-04-14T01:37:09.763Z,3.05
2023-04-14T01:39:54.377Z,2.40
2023-04-14T01:42:24.044Z,2.65
2023-04-14T01:44:55.355Z,2.97
2023-04-14T01:47:22.814Z,2.72
2023-04-14T01:49:51.582Z,3.10
2023-04-14T01:52:19.593Z,3.05
2023-04-14T01:54:48.102Z,3.35
2023-04-14T01:57:19.212Z,3.35
2023-04-14T01:59:49.277Z,3.58
2023-04-14T02:02:17.087Z,3.30
2023-04-14T02:04:44.697Z,3.65
2023-04-14T02:07:13.116Z,3.47
2023-04-14T02:09:41.636Z,3.35
2023-04-14T02:12:08.930Z,3.50
2023-04-14T02:14:36.572Z,3.58
2023-04-14T02:17:04.329Z,3.45
2023-04-14T02:19:31.524Z,3.63
2023-04-14T02:21:59.338Z,3.08
2023-04-14T02:24:26.505Z,4.43
2023-04-14T02:27:07.676Z,3.72
2023-04-14T02:29:36.129Z,3.50
2023-04-14T02:32:04.535Z,3.53
2023-04-14T02:34:35.068Z,3.38
2023-04-14T02:37:09.734Z,3.60
2023-04-14T02:39:38.818Z,3.58
2023-04-14T02:42:12.502Z,3.78
2023-04-14T02:44:43.666Z,3.60
2023-04-14T02:47:11.334Z,3.85
2023-04-14T02:49:44.177Z,3.50
2023-04-14T02:52:12.736Z,4.10
2023-04-14T02:54:42.056Z,3.70
2023-04-14T02:57:09.600Z,3.50
2023-04-14T02:59:40.744Z,3.78
2023-04-14T03:02:10.849Z,4.60
2023-04-14T03:04:41.750Z,3.70
2023-04-14T03:07:16.859Z,3.67
2023-04-14T03:09:45.395Z,4.00
2023-04-14T03:12:14.396Z,3.83
2023-04-14T03:14:42.676Z,3.53
2023-04-14T03:17:11.107Z,3.85
2023-04-14T03:19:40.667Z,3.75
2023-04-14T03:22:11.714Z,4.40
2023-04-14T03:24:39.794Z,3.63
2023-04-14T03:27:12.675Z,4.10
2023-04-14T03:29:41.088Z,4.15
2023-04-14T03:32:09.868Z,4.03
2023-04-14T03:34:41.894Z,3.88
2023-04-14T03:37:10.035Z,4.10
2023-04-14T03:39:39.919Z,3.58
2023-04-14T03:42:08.532Z,4.85
2023-04-14T03:44:37.702Z,4.53
2023-04-14T03:47:08.014Z,4.10
2023-04-14T03:49:37.289Z,3.65
2023-04-14T03:52:06.380Z,4.13
2023-04-14T03:54:34.140Z,4.28
2023-04-14T03:57:04.638Z,4.32
2023-04-14T03:59:32.379Z,4.78
2023-04-14T04:02:00.671Z,4.40
2023-04-14T04:04:28.609Z,3.85
2023-04-14T04:06:57.753Z,4.13
2023-04-14T04:09:25.588Z,4.43
2023-04-14T04:11:52.871Z,3.90
2023-04-14T04:14:21.731Z,4.72
2023-04-14T04:16:50.722Z,4.68
2023-04-14T04:19:21.881Z,3.65
2023-04-14T04:21:53.734Z,3.88
2023-04-14T04:24:23.085Z,3.58
2023-04-14T04:26:51.446Z,4.03
2023-04-14T04:29:18.686Z,4.22
2023-04-14T04:31:46.085Z,4.13
2023-04-14T04:34:14.607Z,4.28
2023-04-14T04:36:41.975Z,4.35
2023-04-14T04:39:09.256Z,4.78
2023-04-14T04:41:40.139Z,4.07
2023-04-14T04:46:47.208Z,3.97
2023-04-14T04:49:15.960Z,4.05
2023-04-14T04:51:43.993Z,3.80
2023-04-14T04:54:11.417Z,3.85
2023-04-14T04:56:38.547Z,3.85
2023-04-14T04:59:06.004Z,4.60
2023-04-14T05:01:33.266Z,3.70
2023-04-14T05:04:00.451Z,4.18
2023-04-14T05:06:28.630Z,3.90
2023-04-14T05:08:56.238Z,4.45
2023-04-14T05:11:23.590Z,3.88
2023-04-14T05:13:50.735Z,4.72
2023-04-14T05:18:45.845Z,4.88
2023-04-14T05:21:13.673Z,4.53
2023-04-14T05:23:42.138Z,4.75
2023-04-14T05:26:31.069Z,4.50
2023-04-14T05:28:56.428Z,4.70
2023-04-14T05:31:23.677Z,4.53
2023-04-14T05:33:51.100Z,5.10
2023-04-14T05:36:18.212Z,4.85
2023-04-14T05:41:12.456Z,4.85
2023-04-14T05:43:39.607Z,5.00
2023-04-14T05:46:06.761Z,4.32
2023-04-14T05:48:35.950Z,4.55
2023-04-14T05:51:03.066Z,4.28
2023-04-14T05:53:30.167Z,5.28
2023-04-14T05:58:26.420Z,4.05
2023-04-14T06:00:53.727Z,4.40
2023-04-14T06:03:21.146Z,4.78
2023-04-14T06:05:48.511Z,3.92
2023-04-14T06:08:15.685Z,4.25
2023-04-14T06:10:42.794Z,4.40
2023-04-14T06:13:09.962Z,4.07
2023-04-14T06:15:37.822Z,3.72
2023-04-14T06:18:05.032Z,3.67
2023-04-14T06:20:32.763Z,4.60
2023-04-14T06:23:01.007Z,4.28
2023-04-14T06:25:28.151Z,3.88
2023-04-14T06:27:55.245Z,3.85
2023-04-14T06:30:22.425Z,3.58
2023-04-14T06:32:54.038Z,4.28
2023-04-14T06:35:32.387Z,4.20
2023-04-14T06:38:00.834Z,4.28
2023-04-14T06:40:27.956Z,4.20
2023-04-14T06:42:55.334Z,3.83
2023-04-14T06:45:22.520Z,4.22
2023-04-14T06:47:49.804Z,4.45
2023-04-14T06:50:17.055Z,3.55
2023-04-14T06:52:44.208Z,3.90
2023-04-14T06:55:11.579Z,3.85
2023-04-14T06:57:38.679Z,3.72
2023-04-14T07:00:06.983Z,3.75
2023-04-14T07:02:34.220Z,3.92
2023-04-14T07:05:01.495Z,4.35
2023-04-14T07:07:28.681Z,3.65
2023-04-14T07:09:55.743Z,3.40
2023-04-14T07:12:22.885Z,3.72
2023-04-14T07:14:52.912Z,3.65
2023-04-14T07:17:20.445Z,3.63
2023-04-14T07:19:47.583Z,3.28
2023-04-14T07:22:14.666Z,3.30
2023-04-14T07:24:41.767Z,3.50
2023-04-14T07:27:15.152Z,2.97
2023-04-14T07:29:42.836Z,2.53
2023-04-14T07:32:11.882Z,3.03
2023-04-14T07:34:41.250Z,2.88
2023-04-14T07:37:08.321Z,2.90
2023-04-14T07:39:35.529Z,2.47
2023-04-14T07:42:02.719Z,2.15
2023-04-14T07:44:29.932Z,2.08
2023-04-14T07:46:57.034Z,2.40
2023-04-14T07:49:24.242Z,2.42
2023-04-14T07:51:51.358Z,2.45
2023-04-14T07:54:18.530Z,2.08
2023-04-14T07:56:46.032Z,1.90
2023-04-14T07:59:13.185Z,1.70
2023-04-14T08:01:40.282Z,1.92
2023-04-14T08:04:07.609Z,1.80
2023-04-14T08:06:35.244Z,1.42
2023-04-14T08:09:02.753Z,1.50
2023-04-14T08:11:30.201Z,1.63
2023-04-14T08:13:57.309Z,1.38
2023-04-14T08:16:25.278Z,2.03
2023-04-14T08:18:52.933Z,1.77
2023-04-14T08:21:22.056Z,1.65
2023-04-14T08:23:49.146Z,1.70
2023-04-14T08:26:16.555Z,1.60
2023-04-14T08:28:43.782Z,1.98
2023-04-14T08:31:11.245Z,1.60
2023-04-14T08:33:38.360Z,1.50
2023-04-14T08:36:05.988Z,1.70
2023-04-14T08:38:33.134Z,1.38
2023-04-14T08:41:01.752Z,1.60
2023-04-14T08:43:28.866Z,1.58
2023-04-14T08:45:56.876Z,1.50
2023-04-14T08:48:27.062Z,1.42
2023-04-14T08:51:04.602Z,1.20
2023-04-14T08:53:32.915Z,0.88
2023-04-14T08:56:02.327Z,1.20
2023-04-14T08:58:29.860Z,1.30
2023-04-14T09:00:57.325Z,1.20
2023-04-14T09:03:25.197Z,1.30
2023-04-14T09:05:52.657Z,1.15
2023-04-14T09:08:20.255Z,1.27
2023-04-14T09:10:47.844Z,1.40
2023-04-14T09:13:15.779Z,1.60
2023-04-14T09:15:43.113Z,1.83
2023-04-14T09:18:11.850Z,1.20
2023-04-14T09:20:40.793Z,1.45
2023-04-14T09:23:10.378Z,1.38
2023-04-14T09:25:41.575Z,1.60
2023-04-14T09:28:08.901Z,1.30
2023-04-14T09:30:36.284Z,1.45
2023-04-14T09:33:07.588Z,1.17
2023-04-14T09:35:50.872Z,1.48
2023-04-14T09:38:39.993Z,1.40
2023-04-14T09:41:07.290Z,1.10
2023-04-14T09:43:34.883Z,1.25
2023-04-14T09:46:06.284Z,1.35
2023-04-14T09:48:34.782Z,1.52
2023-04-14T09:51:02.152Z,1.55
2023-04-14T09:53:36.042Z,1.45
2023-04-14T09:56:21.833Z,1.20
2023-04-14T09:58:50.341Z,1.20
2023-04-14T10:01:18.780Z,1.27
2023-04-14T10:03:46.865Z,1.10
2023-04-14T10:06:14.134Z,1.65
2023-04-14T10:08:42.291Z,1.30
2023-04-14T10:11:22.919Z,1.35
2023-04-14T10:13:51.420Z,1.40
2023-04-14T10:16:18.647Z,1.20
2023-04-14T10:18:46.714Z,1.23
2023-04-14T10:21:14.739Z,1.40
2023-04-14T10:23:42.507Z,1.30
2023-04-14T10:26:11.461Z,1.13
2023-04-14T10:28:40.893Z,1.50
2023-04-14T10:31:10.383Z,1.25
2023-04-14T10:33:38.100Z,1.70
2023-04-14T10:36:06.610Z,1.38
2023-04-14T10:38:54.537Z,1.40
2023-04-14T10:41:21.668Z,1.23
2023-04-14T10:43:48.828Z,1.60
2023-04-14T10:46:18.635Z,1.30
2023-04-14T10:48:49.477Z,1.50
2023-04-14T10:51:17.982Z,1.40
2023-04-14T10:53:55.328Z,1.70
2023-04-14T10:56:24.412Z,1.38
2023-04-14T10:58:56.356Z,1.75
2023-04-14T11:01:24.357Z,1.70
2023-04-14T11:03:51.795Z,1.88
2023-04-14T11:06:42.017Z,1.77
2023-04-14T11:09:32.917Z,1.70
2023-04-14T11:12:23.579Z,1.75
2023-04-14T11:14:50.876Z,1.75
2023-04-14T11:17:24.866Z,1.70
2023-04-14T11:19:58.050Z,1.70
2023-04-14T11:22:39.008Z,2.17
2023-04-14T11:25:06.813Z,1.88
2023-04-14T11:27:34.676Z,1.65
2023-04-14T11:30:01.854Z,1.48
2023-04-14T11:32:28.999Z,1.70
2023-04-14T11:34:56.091Z,1.40
2023-04-14T11:37:23.248Z,1.48
2023-04-14T11:39:50.687Z,1.50
2023-04-14T11:42:17.850Z,1.35
2023-04-14T11:44:44.988Z,1.48
2023-04-14T11:47:12.093Z,1.50
2023-04-14T11:49:39.758Z,1.52
2023-04-14T11:52:07.486Z,1.50
2023-04-14T11:54:39.013Z,1.40
2023-04-14T11:57:10.522Z,1.60
2023-04-14T11:59:47.352Z,1.35
2023-04-14T12:02:16.998Z,1.38
2023-04-14T12:04:45.718Z,1.23
2023-04-14T12:07:14.602Z,1.30
2023-04-14T12:09:49.283Z,1.60
2023-04-14T12:12:17.752Z,1.30
2023-04-14T12:14:46.276Z,1.33
2023-04-14T12:17:15.484Z,1.63
2023-04-14T12:19:42.677Z,1.13
2023-04-14T12:22:10.182Z,1.20
2023-04-14T12:24:37.890Z,1.23
2023-04-14T12:27:06.292Z,1.23
2023-04-14T12:29:34.853Z,1.30
2023-04-14T12:32:02.769Z,1.15
2023-04-14T12:34:29.921Z,1.20
2023-04-14T12:36:57.029Z,1.23
2023-04-14T12:39:26.158Z,1.23
2023-04-14T12:41:53.605Z,1.42
2023-04-14T12:44:24.264Z,1.40
2023-04-14T12:46:52.504Z,1.13
2023-04-14T12:49:36.564Z,1.13
2023-04-14T12:52:04.611Z,0.80
2023-04-14T12:55:02.984Z,1.27
2023-04-14T12:57:31.195Z,1.05
2023-04-14T12:59:58.709Z,1.00
2023-04-14T13:02:25.969Z,1.30
2023-04-14T13:04:53.301Z,0.90
2023-04-14T13:07:20.442Z,1.27
2023-04-14T13:09:47.665Z,1.00
2023-04-14T13:12:14.896Z,1.02
2023-04-14T13:14:42.010Z,1.17
2023-04-14T13:17:09.221Z,1.48
2023-04-14T13:19:36.310Z,1.25
2023-04-14T13:22:03.412Z,0.93
2023-04-14T13:24:30.509Z,1.00
2023-04-14T13:26:57.624Z,1.08
2023-04-14T13:29:24.752Z,1.27
2023-04-14T13:31:51.870Z,1.20
2023-04-14T13:34:18.971Z,1.10
2023-04-14T13:36:46.360Z,1.17
2023-04-14T13:39:13.983Z,1.13
2023-04-14T13:41:41.088Z,1.30
2023-04-14T13:44:08.246Z,1.20
2023-04-14T13:46:40.926Z,1.00
2023-04-14T13:49:08.746Z,1.10
2023-04-14T13:51:35.852Z,1.00
2023-04-14T13:54:03.031Z,1.00
2023-04-14T13:56:30.245Z,1.08
2023-04-14T13:58:57.305Z,1.13
2023-04-14T14:01:24.450Z,1.00
2023-04-14T14:03:51.728Z,0.90
2023-04-14T14:06:19.547Z,1.17
2023-04-14T14:08:46.716Z,0.90
2023-04-14T14:11:14.153Z,1.33
2023-04-14T14:13:41.341Z,1.10
2023-04-14T14:16:09.291Z,0.85
2023-04-14T14:18:37.832Z,1.05
2023-04-14T14:21:05.277Z,1.42
2023-04-14T14:23:32.445Z,1.05
2023-04-14T14:26:00.645Z,1.08
2023-04-14T14:28:28.065Z,1.00
2023-04-14T14:30:55.764Z,1.00
2023-04-14T14:33:22.941Z,0.70
2023-04-14T14:35:50.872Z,1.10
2023-04-14T14:38:17.973Z,0.80
2023-04-14T14:40:45.073Z,0.90
2023-04-14T14:43:12.269Z,1.10
2023-04-14T14:45:39.429Z,0.98
2023-04-14T14:48:06.680Z,0.98
2023-04-14T14:50:33.817Z,1.00
2023-04-14T14:53:01.180Z,0.85
2023-04-14T14:55:28.260Z,1.00
2023-04-14T14:57:55.663Z,1.00
2023-04-14T15:00:22.784Z,1.40
2023-04-14T15:02:50.383Z,1.10
2023-04-14T15:05:17.864Z,1.02
2023-04-14T15:07:45.052Z,0.73
2023-04-14T15:10:12.130Z,0.90
2023-04-14T15:12:39.188Z,1.10
2023-04-14T15:15:07.241Z,1.15
2023-04-14T15:17:34.745Z,1.60
2023-04-14T15:20:04.561Z,1.20
2023-04-14T15:22:32.341Z,1.13
2023-04-14T15:24:59.628Z,1.10
2023-04-14T15:27:26.676Z,1.10
2023-04-14T15:29:54.654Z,1.00
2023-04-14T15:32:25.263Z,1.00
2023-04-14T15:34:52.861Z,0.90
2023-04-14T15:37:19.943Z,1.20
2023-04-14T15:39:47.029Z,1.20
2023-04-14T15:42:14.162Z,1.20
2023-04-14T15:44:41.223Z,1.20
2023-04-14T15:47:08.379Z,1.23
2023-04-14T15:49:35.619Z,1.10
2023-04-14T15:52:02.788Z,1.33
2023-04-14T15:54:30.043Z,1.13
2023-04-14T15:56:57.518Z,1.38
2023-04-14T15:59:24.979Z,1.20
2023-04-14T16:01:53.873Z,1.38
2023-04-14T16:04:21.215Z,1.10
2023-04-14T16:06:48.623Z,1.40
2023-04-14T16:09:15.791Z,1.10
2023-04-14T16:11:42.846Z,1.20
2023-04-14T16:14:09.973Z,1.08
2023-04-14T16:16:38.389Z,1.45
2023-04-14T16:19:05.597Z,1.20
2023-04-14T16:21:32.731Z,1.25
2023-04-14T16:23:59.958Z,1.27
2023-04-14T16:26:27.201Z,1.40
2023-04-14T16:28:54.644Z,1.10
2023-04-14T16:31:21.780Z,1.50
2023-04-14T16:33:48.989Z,1.20
2023-04-14T16:36:16.494Z,1.33
2023-04-14T16:38:43.594Z,1.40
2023-04-14T16:41:10.703Z,1.40
2023-04-14T16:43:37.774Z,1.33
2023-04-14T16:46:05.536Z,1.30
2023-04-14T16:48:33.126Z,1.02
2023-04-14T16:51:08.064Z,1.10
2023-04-14T16:53:36.465Z,1.05
2023-04-14T16:56:10.452Z,1.08
2023-04-14T16:58:38.943Z,1.30
2023-04-14T17:01:06.655Z,1.30
2023-04-14T17:03:34.342Z,1.30
2023-04-14T17:06:01.736Z,1.27
2023-04-14T17:08:28.872Z,1.10
2023-04-14T17:10:56.670Z,1.25
2023-04-14T17:13:23.779Z,1.10
2023-04-14T17:15:58.862Z,1.23
2023-04-14T17:18:35.152Z,1.10
2023-04-14T17:21:02.710Z,1.20
2023-04-14T17:23:29.805Z,1.08
2023-04-14T17:25:57.794Z,1.05
2023-04-14T17:28:26.644Z,1.38
2023-04-14T17:30:53.864Z,1.38
2023-04-14T17:33:21.585Z,1.13
2023-04-14T17:35:48.837Z,1.10
2023-04-14T17:38:16.024Z,1.08
2023-04-14T17:40:43.134Z,1.15
2023-04-14T17:43:10.268Z,1.40
2023-04-14T17:45:39.862Z,1.40
2023-04-14T17:48:08.163Z,1.30
2023-04-14T17:50:35.751Z,1.40
2023-04-14T17:53:02.805Z,1.35
2023-04-14T17:55:29.887Z,1.65
2023-04-14T17:57:57.637Z,1.30
2023-04-14T18:00:24.746Z,1.55
2023-04-14T18:02:52.606Z,1.50
2023-04-14T18:05:19.829Z,1.83
2023-04-14T18:07:47.047Z,1.77
2023-04-14T18:10:14.185Z,1.50
2023-04-14T18:12:41.795Z,1.50
2023-04-14T18:15:11.919Z,1.90
2023-04-14T18:17:39.183Z,1.70
2023-04-14T18:20:06.682Z,1.80
2023-04-14T18:22:34.185Z,1.58
2023-04-14T18:25:01.487Z,1.55
2023-04-14T18:29:58.667Z,2.20
2023-04-14T18:32:27.537Z,2.47
2023-04-14T18:34:54.767Z,2.50
2023-04-14T18:37:21.890Z,1.77
2023-04-14T18:39:49.534Z,2.42
2023-04-14T18:42:16.873Z,2.13
2023-04-14T18:44:43.979Z,2.10
2023-04-14T18:47:11.519Z,1.80
2023-04-14T18:49:39.370Z,3.13
2023-04-14T18:52:06.463Z,3.88
2023-04-14T18:54:33.834Z,3.65
2023-04-14T18:57:01.056Z,3.38
2023-04-14T18:59:28.443Z,2.95
2023-04-14T19:01:55.569Z,3.35
2023-04-14T19:04:22.831Z,3.50
2023-04-14T19:06:49.973Z,3.80
2023-04-14T19:09:17.033Z,4.38
2023-04-14T19:11:45.404Z,5.38
2023-04-14T19:14:12.523Z,5.43
2023-04-14T19:16:39.806Z,5.75
2023-04-14T19:19:08.050Z,5.53
2023-04-14T19:21:35.413Z,5.00
2023-04-14T19:24:02.551Z,5.03
2023-04-14T19:26:30.094Z,3.40
2023-04-14T19:29:00.949Z,3.05
2023-04-14T19:31:28.423Z,2.85
2023-04-14T19:33:56.479Z,3.00
2023-04-14T19:36:23.600Z,2.90
2023-04-14T19:38:51.482Z,3.22
2023-04-14T19:41:19.245Z,2.72
2023-04-14T19:43:46.861Z,3.13
2023-04-14T19:46:14.998Z,3.03
2023-04-14T19:48:42.240Z,3.55
2023-04-14T19:51:09.850Z,3.67
2023-04-14T19:53:37.368Z,3.20
2023-04-14T19:56:05.557Z,3.13
2023-04-14T19:58:32.996Z,3.60
2023-04-14T20:01:01.079Z,3.58
2023-04-14T20:03:28.594Z,4.03
2023-04-14T20:05:56.666Z,3.20
2023-04-14T20:08:24.958Z,4.00
2023-04-14T20:10:53.220Z,3.42
2023-04-14T20:13:21.292Z,3.30
2023-04-14T20:15:49.305Z,3.33
2023-04-14T20:18:17.948Z,3.20
2023-04-14T20:20:48.807Z,2.90
2023-04-14T20:23:16.156Z,2.90
2023-04-14T20:25:44.793Z,3.20
2023-04-14T20:28:11.962Z,3.00
2023-04-14T20:30:39.162Z,3.28
2023-04-14T20:33:06.288Z,2.90
2023-04-14T20:35:39.271Z,3.30
2023-04-14T20:40:33.826Z,3.90
2023-04-14T20:43:00.988Z,3.78
2023-04-14T20:45:28.447Z,3.65
2023-04-14T20:47:55.608Z,3.67
2023-04-14T20:50:23.097Z,3.72
2023-04-14T20:52:50.408Z,4.07
2023-04-14T20:55:18.140Z,4.00
2023-04-14T20:57:46.053Z,3.60
2023-04-14T21:00:17.004Z,3.38
2023-04-14T21:02:44.559Z,3.90
2023-04-14T21:05:12.745Z,3.63
2023-04-14T21:07:40.130Z,3.90
2023-04-14T21:10:07.594Z,3.35
2023-04-14T21:12:35.375Z,3.83
2023-04-14T21:15:49.476Z,3.72
2023-04-14T21:17:52.803Z,3.85
2023-04-14T21:20:20.066Z,3.65
2023-04-14T21:22:47.145Z,3.67
2023-04-14T21:25:14.266Z,3.70
2023-04-14T21:27:41.578Z,4.40
2023-04-14T21:30:11.676Z,4.15
2023-04-14T21:32:39.362Z,3.67
2023-04-14T21:35:07.306Z,3.80
2023-04-14T21:37:34.713Z,4.22
2023-04-14T21:40:06.236Z,4.32
2023-04-14T21:42:33.314Z,3.47
2023-04-14T21:45:00.954Z,4.03
2023-04-14T21:47:28.140Z,4.10
2023-04-14T21:49:56.341Z,4.00
2023-04-14T21:52:23.532Z,4.13
2023-04-14T21:54:51.069Z,4.13
2023-04-14T21:57:18.258Z,4.07
2023-04-14T22:00:05.937Z,4.20
2023-04-14T22:02:35.341Z,4.30
2023-04-14T22:05:02.950Z,4.32
2023-04-14T22:07:30.066Z,4.05
2023-04-14T22:09:57.177Z,4.40
2023-04-14T22:12:24.790Z,4.50
2023-04-14T22:14:52.423Z,4.38
2023-04-14T22:17:19.600Z,5.03
2023-04-14T22:19:47.009Z,4.65
2023-04-14T22:22:14.094Z,5.30
2023-04-14T22:24:41.145Z,5.78
2023-04-14T22:27:08.285Z,5.15
2023-04-14T22:29:35.465Z,5.78
2023-04-14T22:32:02.531Z,4.95
2023-04-14T22:34:29.647Z,5.13
2023-04-14T22:36:57.930Z,5.65
2023-04-14T22:39:25.232Z,4.97
2023-04-14T22:41:52.337Z,5.03
2023-04-14T22:44:19.685Z,5.40
2023-04-14T22:46:47.171Z,5.40
2023-04-14T22:49:14.298Z,4.95
2023-04-14T22:51:41.456Z,5.35
2023-04-14T22:54:09.141Z,4.78
2023-04-14T22:56:37.066Z,5.25
2023-04-14T22:59:04.478Z,4.68
2023-04-14T23:01:31.776Z,4.60
2023-04-14T23:03:59.293Z,4.85
2023-04-14T23:06:26.487Z,4.38
2023-04-14T23:08:53.650Z,4.90
2023-04-14T23:11:21.339Z,4.28
2023-04-14T23:13:48.718Z,4.10
2023-04-14T23:16:16.772Z,3.95
2023-04-14T23:18:44.163Z,4.43
2023-04-14T23:21:11.612Z,3.92
2023-04-14T23:23:38.752Z,4.97
2023-04-14T23:26:06.525Z,4.38
2023-04-14T23:28:33.629Z,4.50
2023-04-14T23:31:00.862Z,4.20
2023-04-14T23:33:28.032Z,4.10
2023-04-14T23:35:55.131Z,4.40
2023-04-14T23:38:22.214Z,4.13
2023-04-14T23:40:49.450Z,4.60
2023-04-14T23:43:16.678Z,4.20
2023-04-14T23:45:43.918Z,4.13
2023-04-14T23:48:11.314Z,4.45
2023-04-14T23:51:00.231Z,4.72
2023-04-14T23:53:25.960Z,4.40
2023-04-14T23:55:53.058Z,4.70
2023-04-14T23:58:26.463Z,4.13
